createdAt,value
2019-04-04T00:01:28.198Z,75.40
2019-04-04T00:06:32.170Z,76.00
2019-04-04T00:11:36.872Z,77.30
2019-04-04T00:16:41.356Z,78.00
2019-04-04T00:21:45.072Z,77.70
2019-04-04T00:26:49.035Z,78.40
2019-04-04T00:31:52.738Z,78.90
2019-04-04T00:36:56.698Z,79.40
2019-04-04T00:42:00.386Z,80.00
2019-04-04T00:47:04.106Z,80.40
2019-04-04T00:52:09.922Z,80.80
2019-04-04T00:57:13.231Z,81.30
2019-04-04T01:02:16.943Z,81.60
2019-04-04T01:07:20.670Z,82.50
2019-04-04T01:12:24.394Z,83.00
2019-04-04T01:17:28.371Z,83.60
2019-04-04T01:22:32.355Z,84.20
2019-04-04T01:27:36.928Z,84.60
2019-04-04T01:32:42.339Z,85.00
2019-04-04T01:37:46.081Z,85.30
2019-04-04T01:42:49.813Z,85.10
2019-04-04T01:47:53.525Z,84.80
2019-04-04T01:52:59.284Z,84.90
2019-04-04T01:58:03.011Z,84.70
2019-04-04T02:03:06.745Z,84.90
2019-04-04T02:08:10.890Z,85.00
2019-04-04T02:13:14.622Z,85.60
2019-04-04T02:18:18.373Z,85.30
2019-04-04T02:23:22.363Z,85.70
2019-04-04T02:28:26.100Z,85.70
2019-04-04T02:33:32.438Z,85.80
2019-04-04T02:38:35.307Z,87.20
2019-04-04T02:43:39.020Z,87.30
2019-04-04T02:48:42.768Z,87.60
2019-04-04T02:53:46.760Z,87.70
2019-04-04T02:58:51.100Z,88.00
2019-04-04T03:03:54.964Z,88.50
2019-04-04T03:08:58.757Z,89.20
2019-04-04T03:14:03.726Z,89.70
2019-04-04T03:19:10.992Z,90.00
2019-04-04T03:24:13.472Z,90.50
2019-04-04T03:29:17.407Z,90.80
2019-04-04T03:34:21.134Z,91.10
2019-04-04T03:39:24.931Z,91.40
2019-04-04T03:44:28.721Z,91.60
2019-04-04T03:49:32.448Z,91.60
2019-04-04T03:54:36.427Z,91.50
2019-04-04T03:59:40.204Z,91.50
2019-04-04T04:04:43.922Z,91.80
2019-04-04T04:09:47.627Z,91.80
2019-04-04T04:14:54.881Z,91.90
2019-04-04T04:19:56.890Z,92.10
2019-04-04T04:25:03.496Z,92.10
2019-04-04T04:30:07.596Z,92.00
2019-04-04T04:35:12.351Z,92.00
2019-04-04T04:40:16.071Z,92.00
2019-04-04T04:45:20.098Z,92.00
2019-04-04T04:50:23.916Z,92.10
2019-04-04T04:55:28.205Z,92.50
2019-04-04T05:00:32.438Z,91.90
2019-04-04T05:05:36.209Z,91.90
2019-04-04T05:10:39.959Z,91.70
2019-04-04T05:15:43.982Z,91.50
2019-04-04T05:20:48.044Z,91.50
2019-04-04T05:25:54.471Z,91.40
2019-04-04T05:30:58.662Z,91.30
2019-04-04T05:36:04.805Z,90.70
2019-04-04T05:41:11.325Z,86.30
2019-04-04T05:46:16.791Z,82.70
2019-04-04T05:51:20.752Z,79.90
2019-04-04T05:56:24.693Z,79.20
2019-04-04T06:01:28.585Z,79.20
2019-04-04T06:06:33.370Z,78.70
2019-04-04T06:11:38.260Z,79.70
2019-04-04T06:16:42.234Z,78.70
2019-04-04T06:21:46.042Z,78.70
2019-04-04T06:26:50.078Z,77.40
2019-04-04T06:32:00.092Z,78.20
2019-04-04T06:37:04.199Z,78.60
2019-04-04T06:42:11.392Z,76.00
2019-04-04T06:47:19.606Z,75.30
2019-04-04T06:52:37.481Z,76.00
2019-04-04T06:57:42.615Z,73.80
2019-04-04T07:02:56.063Z,72.60
2019-04-04T07:08:00.055Z,70.90
2019-04-04T07:13:20.455Z,69.20
2019-04-04T07:18:12.985Z,69.70
2019-04-04T07:23:20.689Z,67.60
2019-04-04T07:28:25.719Z,69.30
2019-04-04T07:33:30.330Z,68.60
2019-04-04T07:38:38.610Z,67.80
2019-04-04T07:43:43.778Z,67.00
2019-04-04T07:48:52.163Z,64.00
2019-04-04T07:53:58.619Z,64.30
2019-04-04T07:59:04.451Z,62.40
2019-04-04T08:04:10.381Z,59.50
2019-04-04T08:09:32.903Z,58.50
2019-04-04T08:14:43.844Z,58.00
2019-04-04T08:19:59.561Z,58.50
2019-04-04T08:24:57.794Z,56.40
2019-04-04T08:30:02.812Z,58.20
2019-04-04T08:35:09.034Z,56.80
2019-04-04T08:40:16.164Z,56.60
2019-04-04T08:45:28.761Z,57.40
2019-04-04T08:50:44.140Z,54.50
2019-04-04T08:55:59.919Z,53.80
2019-04-04T09:01:05.172Z,54.60
2019-04-04T09:06:13.390Z,55.00
2019-04-04T09:11:19.002Z,54.50
2019-04-04T09:16:23.815Z,53.20
2019-04-04T09:21:27.951Z,50.40
2019-04-04T09:26:31.728Z,51.80
2019-04-04T09:31:35.479Z,51.10
2019-04-04T09:36:39.658Z,50.40
2019-04-04T09:41:44.168Z,50.90
2019-04-04T09:46:48.776Z,50.40
2019-04-04T09:51:53.205Z,49.70
2019-04-04T09:57:00.579Z,48.70
2019-04-04T10:02:06.248Z,49.70
2019-04-04T10:07:11.465Z,51.00
2019-04-04T10:12:18.281Z,51.20
2019-04-04T10:17:35.123Z,50.30
2019-04-04T10:22:42.678Z,49.10
2019-04-04T10:27:50.821Z,48.80
2019-04-04T10:32:55.549Z,47.80
2019-04-04T10:38:02.783Z,48.70
2019-04-04T10:43:09.551Z,46.30
2019-04-04T10:48:14.669Z,47.50
2019-04-04T10:53:20.932Z,47.70
2019-04-04T10:58:24.662Z,48.00
2019-04-04T11:03:29.301Z,47.00
2019-04-04T11:08:33.863Z,46.90
2019-04-04T11:13:38.628Z,48.00
2019-04-04T11:18:43.065Z,47.10
2019-04-04T11:23:48.051Z,47.10
2019-04-04T11:28:52.486Z,44.30
2019-04-04T11:33:57.328Z,44.70
2019-04-04T11:39:01.489Z,46.30
2019-04-04T11:44:06.409Z,45.70
2019-04-04T11:49:11.857Z,44.90
2019-04-04T11:54:17.117Z,45.30
2019-04-04T11:59:21.942Z,45.50
2019-04-04T12:04:26.915Z,45.30
2019-04-04T12:09:36.209Z,43.40
2019-04-04T12:14:52.790Z,43.10
2019-04-04T12:20:00.742Z,42.90
2019-04-04T12:25:06.052Z,42.70
2019-04-04T12:30:11.227Z,42.10
2019-04-04T12:35:15.921Z,42.20
2019-04-04T12:40:21.192Z,42.30
2019-04-04T12:45:26.523Z,42.20
2019-04-04T12:50:31.123Z,41.10
2019-04-04T12:55:35.919Z,42.00
2019-04-04T13:00:40.244Z,39.90
2019-04-04T13:05:44.273Z,41.80
2019-04-04T13:10:49.208Z,39.80
2019-04-04T13:15:54.577Z,39.80
2019-04-04T13:20:59.652Z,40.30
2019-04-04T13:26:04.453Z,40.30
2019-04-04T13:31:09.531Z,39.40
2019-04-04T13:36:13.874Z,37.90
2019-04-04T13:41:22.054Z,39.50
2019-04-04T13:46:28.043Z,37.90
2019-04-04T13:51:31.142Z,37.50
2019-04-04T13:56:35.558Z,38.40
2019-04-04T14:01:42.717Z,38.20
2019-04-04T14:06:47.262Z,37.10
2019-04-04T14:11:51.996Z,38.20
2019-04-04T14:16:57.330Z,38.90
2019-04-04T14:22:02.089Z,37.80
2019-04-04T14:27:09.022Z,38.00
2019-04-04T14:32:14.545Z,36.60
2019-04-04T14:37:18.281Z,38.10
2019-04-04T14:42:22.307Z,38.90
2019-04-04T14:47:26.731Z,39.20
2019-04-04T14:52:30.828Z,39.40
2019-04-04T14:57:35.918Z,39.70
2019-04-04T15:02:40.877Z,39.30
2019-04-04T15:07:45.225Z,38.10
2019-04-04T15:12:50.611Z,38.10
2019-04-04T15:17:55.230Z,38.50
2019-04-04T15:23:01.032Z,39.80
2019-04-04T15:28:05.926Z,37.60
2019-04-04T15:33:11.742Z,38.00
2019-04-04T15:38:17.611Z,38.40
2019-04-04T15:43:22.858Z,38.70
2019-04-04T15:48:28.084Z,38.90
2019-04-04T15:53:33.025Z,38.60
2019-04-04T15:58:38.251Z,38.80
2019-04-04T16:03:43.693Z,40.10
2019-04-04T16:08:48.417Z,40.30
2019-04-04T16:13:53.215Z,40.30
2019-04-04T16:18:58.442Z,40.80
2019-04-04T16:24:03.909Z,41.80
2019-04-04T16:29:08.423Z,42.00
2019-04-04T16:34:13.007Z,42.70
2019-04-04T16:39:17.722Z,42.60
2019-04-04T16:44:22.590Z,42.80
2019-04-04T16:49:28.220Z,43.80
2019-04-04T16:54:32.878Z,45.00
2019-04-04T16:59:38.067Z,45.20
2019-04-04T17:04:43.655Z,46.20
2019-04-04T17:09:49.393Z,46.50
2019-04-04T17:14:54.670Z,47.00
2019-04-04T17:19:58.501Z,48.00
2019-04-04T17:25:03.067Z,48.80
2019-04-04T17:30:09.295Z,49.20
2019-04-04T17:35:14.793Z,50.00
2019-04-04T17:40:21.013Z,50.20
2019-04-04T17:45:26.920Z,50.40
2019-04-04T17:50:32.330Z,50.90
2019-04-04T17:55:37.342Z,51.50
2019-04-04T18:00:42.517Z,52.30
2019-04-04T18:05:47.432Z,52.70
2019-04-04T18:10:52.601Z,53.00
2019-04-04T18:15:57.727Z,53.30
2019-04-04T18:21:01.842Z,53.30
2019-04-04T18:26:06.246Z,53.70
2019-04-04T18:31:11.818Z,54.00
2019-04-04T18:36:16.108Z,54.50
2019-04-04T18:41:20.575Z,54.90
2019-04-04T18:46:26.209Z,55.50
2019-04-04T18:51:31.218Z,55.80
2019-04-04T18:56:37.267Z,56.30
2019-04-04T19:01:42.471Z,56.90
2019-04-04T19:06:48.030Z,57.80
2019-04-04T19:11:53.355Z,57.90
2019-04-04T19:16:58.442Z,57.80
2019-04-04T19:22:03.570Z,58.00
2019-04-04T19:27:07.633Z,58.30
2019-04-04T19:32:12.035Z,58.20
2019-04-04T19:37:16.853Z,58.20
2019-04-04T19:42:22.188Z,58.40
2019-04-04T19:47:26.850Z,58.50
2019-04-04T19:52:31.619Z,58.80
2019-04-04T19:57:36.086Z,58.90
2019-04-04T20:02:43.778Z,59.10
2019-04-04T20:07:47.431Z,59.00
2019-04-04T20:12:51.546Z,58.80
2019-04-04T20:17:56.986Z,58.60
2019-04-04T20:23:02.126Z,58.60
2019-04-04T20:28:06.117Z,59.00
2019-04-04T20:33:13.554Z,59.40
2019-04-04T20:38:17.736Z,59.50
2019-04-04T20:43:21.752Z,59.80
2019-04-04T20:48:27.951Z,60.60
2019-04-04T20:53:32.951Z,60.80
2019-04-04T20:58:38.199Z,61.80
2019-04-04T21:03:42.574Z,62.90
2019-04-04T21:08:47.517Z,64.30
2019-04-04T21:13:56.451Z,65.40
2019-04-04T21:18:57.794Z,66.10
2019-04-04T21:24:02.569Z,66.70
2019-04-04T21:29:08.254Z,67.10
2019-04-04T21:34:12.575Z,67.70
2019-04-04T21:39:16.686Z,67.80
2019-04-04T21:44:22.417Z,68.20
2019-04-04T21:49:28.008Z,68.20
2019-04-04T21:54:33.979Z,67.40
2019-04-04T21:59:39.330Z,69.30
2019-04-04T22:04:43.143Z,70.00
2019-04-04T22:09:47.674Z,70.90
2019-04-04T22:14:52.158Z,71.10
2019-04-04T22:19:57.479Z,71.60
2019-04-04T22:25:02.431Z,72.00
2019-04-04T22:30:09.021Z,72.40
2019-04-04T22:35:14.597Z,73.00
2019-04-04T22:40:19.288Z,73.00
2019-04-04T22:45:24.643Z,73.50
2019-04-04T22:50:29.936Z,73.60
2019-04-04T22:55:35.591Z,73.60
2019-04-04T23:00:39.458Z,75.70
2019-04-04T23:05:44.244Z,75.90
2019-04-04T23:10:49.167Z,76.30
2019-04-04T23:15:53.229Z,76.80
2019-04-04T23:20:58.584Z,77.50
2019-04-04T23:26:03.693Z,77.60
2019-04-04T23:31:08.797Z,78.10
2019-04-04T23:36:12.631Z,78.40
2019-04-04T23:41:19.710Z,79.20
2019-04-04T23:46:25.242Z,79.80
2019-04-04T23:51:30.859Z,81.00
2019-04-04T23:56:36.056Z,82.30
